Dallas, TX

2:52 PM CDT on September 02, 2015 (GMT -0500)
Deep Ellum | | Change Station
CLOSE
Current Station
Personal Weather Station
Location: Dallas, TX
Elevation: 489 ft
Nearby Weather Stations

Elev 489 ft 32.78 °N, 96.78 °W | Updated 11 seconds ago

Clear
Clear
92.5 °F
Feels Like 98 °F
N
5.6
Wind Variable Wind from WSW
Gusts 7.4 mph

Today
High -- | Low -- °F
--% Chance of Precip.
Yesterday
High -- | Low -- °F
Precip. -- in
7:02 AM 7:50 PM
Waning Gibbous, 78% visible
Pressure 30.00 in
Visibility 10.0 miles
Clouds Few 5000 ft
Few 30000 ft
Heat Index 98 °F
Dew Point 70 °F
Humidity 48%
Rainfall 0.00 in
Snow Depth Not available.
UV 6.0 out of 12
Pollen 9.30 out of 12
Air Quality Not available.
Flu Activity Not available.
METAR KDAL 021853Z 13011G16KT 10SM FEW050 FEW300 33/18 A3002 RMK AO2 SLP158 T03330178
Pressure 30.00 in
Visibility 10.0 miles
Clouds Few 5000 ft
Few 30000 ft
Heat Index 98 °F
Dew Point 70 °F
Humidity 48%
Rainfall 0.00 in
Snow Depth Not available.
UV 6.0 out of 12
Pollen 9.30 out of 12
Air Quality Not available.
Flu Activity Not available.
METAR KDAL 021853Z 13011G16KT 10SM FEW050 FEW300 33/18 A3002 RMK AO2 SLP158 T03330178
Nowcast | as of 1:49 PM CDT on September 2, 2015

Isolated showers and a few thunderstorms will develop this afternoon southeast of a line from Lampasas to Waxahachie to Sulphur Springs. Cloud to ground lightning...brief heavy rain and wind gusts over 35 mph will accompany some of the storms as they move north at 15 mph.

×

10-Day Weather Forecast

×

Almanac

Astronomy

Sep. 02, 2015 Rise Set
Actual Time
Civil Twilight
Nautical Twilight
Astronomical Twilight
Moon
Length of Visible Light
Length of Day
Tomorrow will be .
, % of the Moon is Illuminated

Today's Extremes

State Highs State Lows

Community

WunderPhotos

Upload Photos

1,851,801 photos uploaded!

WunderBlogs® & News

Nearby

Air Quality

  Air Quality AQ Index Pollutant
Not available.

Snow Depth

Station Depth Elevation

Earthquake Activity

City Distance Mag. Time & Date
Minimum magnitude displayed is 2.5.

Coastal Water Temperatures

Place Temperature

Stations

Nearby Weather Stations

Station Location Temp. Windchill Dew Point Humidity Wind Precip. Elev Updated Type